createdAt,value
2019-05-30T00:01:58.574Z,101040.65
2019-05-30T00:07:02.608Z,101039.36
2019-05-30T00:12:06.371Z,101034.94
2019-05-30T00:17:11.227Z,101034.94
2019-05-30T00:22:14.908Z,101046.47
2019-05-30T00:27:18.744Z,101046.47
2019-05-30T00:32:22.657Z,101044.48
2019-05-30T00:37:26.495Z,101047.33
2019-05-30T00:42:30.570Z,101047.33
2019-05-30T00:47:34.289Z,101051.56
2019-05-30T00:52:38.045Z,101047.41
2019-05-30T00:57:42.016Z,101047.53
2019-05-30T01:02:45.799Z,101047.70
2019-05-30T01:07:49.825Z,101033.76
2019-05-30T01:12:53.598Z,101033.76
2019-05-30T01:17:57.471Z,101045.02
2019-05-30T01:23:01.354Z,101047.98
2019-05-30T01:28:05.638Z,101042.23
2019-05-30T01:33:09.443Z,101042.23
2019-05-30T01:38:13.209Z,101036.66
2019-05-30T01:43:17.337Z,101036.66
2019-05-30T01:48:21.028Z,101034.00
2019-05-30T01:53:24.706Z,101031.37
2019-05-30T01:58:28.618Z,101034.34
2019-05-30T02:03:33.438Z,101037.38
2019-05-30T02:08:37.261Z,101045.80
2019-05-30T02:13:41.074Z,101038.56
2019-05-30T02:18:44.790Z,101044.19
2019-05-30T02:23:48.528Z,101050.03
2019-05-30T02:28:52.815Z,101043.00
2019-05-30T02:33:56.480Z,101045.77
2019-05-30T02:39:00.811Z,101019.58
2019-05-30T02:44:07.749Z,101019.58
2019-05-30T02:49:13.864Z,101050.36
2019-05-30T02:54:17.390Z,101046.53
2019-05-30T02:59:21.245Z,101047.05
2019-05-30T03:04:25.090Z,101047.05
2019-05-30T03:09:28.924Z,101063.81
2019-05-30T03:14:32.903Z,101063.81
2019-05-30T03:19:36.775Z,101062.95
2019-05-30T03:24:40.698Z,101072.69
2019-05-30T03:29:44.538Z,101079.66
2019-05-30T03:34:48.293Z,101083.06
2019-05-30T03:39:52.106Z,101081.48
2019-05-30T03:44:55.783Z,101081.48
2019-05-30T03:50:01.772Z,101095.66
2019-05-30T03:55:09.251Z,101104.17
2019-05-30T04:00:34.021Z,101104.17
2019-05-30T04:05:52.898Z,101103.64
2019-05-30T04:10:59.733Z,101107.59
2019-05-30T04:16:03.665Z,101107.59
2019-05-30T04:21:08.568Z,101112.64
2019-05-30T04:26:13.875Z,101114.06
2019-05-30T04:31:19.422Z,101113.44
2019-05-30T04:36:23.583Z,101119.64
2019-05-30T04:41:27.335Z,101118.95
2019-05-30T04:46:31.282Z,101114.98
2019-05-30T04:51:35.009Z,101121.69
2019-05-30T04:56:38.716Z,101127.05
2019-05-30T05:01:42.429Z,101127.53
2019-05-30T05:06:46.115Z,101127.78
2019-05-30T05:11:49.986Z,101130.95
2019-05-30T05:16:53.752Z,101139.66
2019-05-30T05:21:57.456Z,101140.69
2019-05-30T05:27:01.287Z,101150.02
2019-05-30T05:32:05.294Z,101161.56
2019-05-30T05:37:09.154Z,101155.02
2019-05-30T05:42:13.011Z,101160.25
2019-05-30T05:47:16.831Z,101164.00
2019-05-30T05:52:20.786Z,101170.62
2019-05-30T05:57:25.705Z,101175.94
2019-05-30T06:02:30.702Z,101178.67
2019-05-30T06:07:34.395Z,101178.67
2019-05-30T06:12:38.118Z,101187.38
2019-05-30T06:17:41.885Z,101187.38
2019-05-30T06:22:45.712Z,101199.81
2019-05-30T06:27:49.628Z,101199.81
2019-05-30T11:30:59.157Z,101116.30
2019-05-30T11:36:02.993Z,101116.30
2019-05-30T11:41:06.776Z,101115.09
2019-05-30T11:46:10.658Z,101115.09
2019-05-30T11:51:14.377Z,101101.13
2019-05-30T11:56:18.196Z,101105.95
2019-05-30T12:01:22.067Z,101104.35
2019-05-30T12:06:26.000Z,101096.41
2019-05-30T12:11:29.780Z,101101.84
2019-05-30T12:16:33.992Z,101096.30
2019-05-30T12:21:37.840Z,101091.36
2019-05-30T12:26:42.956Z,101090.36
2019-05-30T12:31:46.728Z,101103.48
2019-05-30T12:36:50.476Z,101097.57
2019-05-30T12:41:54.863Z,101097.57
2019-05-30T12:46:59.217Z,101097.25
2019-05-30T12:52:03.389Z,101094.76
2019-05-30T12:57:07.422Z,101107.91
2019-05-30T13:02:11.159Z,101099.03
2019-05-30T13:07:14.855Z,101091.48
2019-05-30T13:12:18.894Z,101103.52
2019-05-30T13:17:22.628Z,101096.31
2019-05-30T13:22:26.362Z,101098.07
2019-05-30T13:27:30.246Z,101090.41
2019-05-30T13:32:35.172Z,101090.91
2019-05-30T13:37:39.234Z,101093.97
2019-05-30T13:42:42.989Z,101093.97
2019-05-30T13:47:46.930Z,101103.33
2019-05-30T13:52:50.810Z,101099.54
2019-05-30T13:57:54.827Z,101089.27
2019-05-30T14:02:59.924Z,101099.73
2019-05-30T14:08:06.514Z,101099.63
2019-05-30T14:13:11.181Z,101107.82
2019-05-30T14:18:17.292Z,101089.02
2019-05-30T14:23:21.270Z,101091.27
2019-05-30T14:28:25.214Z,101093.27
2019-05-30T14:33:29.043Z,101096.64
2019-05-30T14:38:32.987Z,101102.03
2019-05-30T14:43:36.794Z,101100.36
2019-05-30T14:48:40.675Z,101105.00
2019-05-30T14:53:44.467Z,101104.92
2019-05-30T14:58:48.347Z,101100.66
2019-05-30T15:03:52.095Z,101100.66
2019-05-30T15:08:55.773Z,101099.64
2019-05-30T15:13:59.440Z,101099.64
2019-05-30T15:19:03.497Z,101093.80
2019-05-30T15:24:07.700Z,101090.38
2019-05-30T15:29:12.110Z,101090.38
2019-05-30T15:34:16.833Z,101102.52
2019-05-30T15:39:32.286Z,101098.79
2019-05-30T15:44:26.423Z,101098.48
2019-05-30T15:49:30.305Z,101098.48
2019-05-30T15:54:34.228Z,101094.91
2019-05-30T15:59:38.339Z,101082.37
2019-05-30T16:04:42.114Z,101082.37
2019-05-30T16:09:47.392Z,101084.31
2019-05-30T16:14:51.573Z,101078.13
2019-05-30T16:19:55.330Z,101086.28
2019-05-30T16:24:59.158Z,101087.73
2019-05-30T16:30:06.291Z,101087.73
2019-05-30T16:35:11.096Z,101091.65
2019-05-30T16:40:16.226Z,101087.79
2019-05-30T16:45:23.663Z,101091.76
2019-05-30T16:50:27.028Z,101087.27
